MOL Commitment — V7AZ4 — position and weather

sailwx.info

Track history (hours):
 
Tides and Currents Weather Stations Pressure Air Temp Water Temp Dewpoint Dewpoint Depression Visibility Wind Speed Wind Dir Waves Ship Positions

MOL Commitment

Last reported at 2017-Sep-18 12:30 UTC. Time now 2017-Sep-21 17:35 UTC.
Position N 34°52' E 139°21'.

Length 316 m; draft 8 m.

Type: Ship (hazmat cat A). MMSI: 538005100.

Date/timePositionNaut miles runAvg speedWind from/ knotsBaromVisibWave heightAir tempDewpointWater temp
2017-Sep-18 12:30N 34°52' E 139°21'714.6
2017-Sep-18 12:00N 34°56' E 139°28'714.9
2017-Sep-18 11:30N 35°00' E 139°35'815.2
2017-Sep-18 11:00N 35°05' E 139°42'714.9
2017-Sep-18 10:30N 35°12' E 139°45'4 8.9
2017-Sep-18 10:00N 35°17' E 139°45'611.4
2017-Sep-18 09:31N 35°22' E 139°42'612.4
2017-Sep-18 09:01N 35°27' E 139°46'713.1
2017-Sep-18 08:31N 35°32' E 139°51'5 7.3
2017-Sep-18 07:49N 35°36' E 139°47'0 0.0
2017-Sep-18 07:28N 35°36' E 139°47'0 0.0
2017-Sep-18 06:58N 35°36' E 139°47'0 0.0
2017-Sep-18 06:28N 35°36' E 139°47'0 0.0
2017-Sep-18 05:58N 35°36' E 139°47'0 0.0
2017-Sep-18 05:28N 35°36' E 139°47'0 0.0
2017-Sep-18 04:49N 35°36' E 139°47'0 0.0
2017-Sep-18 04:25N 35°36' E 139°47'0 0.0
2017-Sep-18 03:58N 35°36' E 139°47'0 0.0
2017-Sep-18 03:22N 35°36' E 139°47'0 0.0
2017-Sep-18 02:55N 35°36' E 139°47'0 0.0
2017-Sep-18 02:25N 35°36' E 139°47'0 0.0
2017-Sep-18 01:52N 35°36' E 139°47'0 0.0
2017-Sep-18 01:22N 35°36' E 139°47'0 0.1
2017-Sep-18 00:58N 35°36' E 139°47'0 0.1
2017-Sep-18 00:25N 35°36' E 139°47'0 0.0
2017-Sep-17 23:49N 35°36' E 139°47'0 0.0
2017-Sep-17 23:16N 35°36' E 139°47'0 0.0
2017-Sep-17 22:43N 35°36' E 139°47'0 0.0
2017-Sep-17 22:28N 35°36' E 139°47'0 0.0
2017-Sep-17 21:58N 35°36' E 139°47'0 0.0
2017-Sep-17 21:22N 35°36' E 139°47'0 0.0
2017-Sep-17 20:55N 35°36' E 139°47'0 0.0
2017-Sep-17 20:28N 35°36' E 139°47'0 0.0
2017-Sep-17 19:52N 35°36' E 139°47'0 0.0
2017-Sep-17 19:28N 35°36' E 139°47'0 0.0
2017-Sep-17 18:55N 35°36' E 139°47'0 0.0
2017-Sep-17 18:22N 35°36' E 139°47'0 0.0
2017-Sep-17 17:58N 35°36' E 139°47'0 0.0
2017-Sep-17 17:28N 35°36' E 139°47'0 0.0
2017-Sep-17 16:58N 35°36' E 139°47'0 0.0
2017-Sep-17 16:25N 35°36' E 139°47'0 0.0
2017-Sep-17 16:01N 35°36' E 139°47'0 0.0
2017-Sep-17 15:28N 35°36' E 139°47'0 0.0
2017-Sep-17 14:46N 35°36' E 139°47'0 0.0
2017-Sep-17 14:22N 35°36' E 139°47'0 0.0
2017-Sep-17 13:58N 35°36' E 139°47'0 0.0
2017-Sep-17 13:19N 35°36' E 139°47'0 0.0
2017-Sep-17 12:55N 35°36' E 139°47'0 0.0
2017-Sep-17 12:28N 35°36' E 139°47'0 0.1
2017-Sep-17 12:01N 35°36' E 139°47'3 6.1
2017-Sep-17 11:30N 35°34' E 139°49'510.9
2017-Sep-17 11:00N 35°29' E 139°51'815.0
2017-Sep-17 10:30N 35°24' E 139°44'3 5.1
2017-Sep-17 10:01N 35°24' E 139°41'0 0.0
2017-Sep-17 09:30N 35°24' E 139°41'0 0.0
2017-Sep-17 09:00N 35°24' E 139°41'0 0.0
2017-Sep-17 08:30N 35°24' E 139°41'0 0.0
2017-Sep-17 08:00N 35°24' E 139°41'0 0.0
2017-Sep-17 07:30N 35°24' E 139°41'0 0.0
2017-Sep-17 07:00N 35°24' E 139°41'0 0.0
2017-Sep-17 06:30N 35°24' E 139°41'0 0.0
2017-Sep-17 06:00N 35°24' E 139°41'0 0.0
2017-Sep-17 05:30N 35°24' E 139°41'0 0.4
2017-Sep-17 05:00N 35°24' E 139°41'2 4.1
2017-Sep-17 04:30N 35°22' E 139°42'5 9.5
2017-Sep-17 04:00N 35°18' E 139°45'611.9
2017-Sep-17 03:30N 35°12' E 139°47'510.8
2017-Sep-17 03:00N 35°07' E 139°44'815.5
2017-Sep-17 02:30N 35°02' E 139°38'918.3
2017-Sep-17 02:00N 34°57' E 139°29'918.1
2017-Sep-17 01:30N 34°51' E 139°20'220 6.7
2017-Sep-15 16:35N 34°04' E 134°58'218.4
2017-Sep-15 16:28N 34°06' E 134°58'816.7
2017-Sep-15 16:00N 34°14' E 134°58'917.7
2017-Sep-15 15:29N 34°23' E 135°01'919.4
2017-Sep-15 15:01N 34°29' E 135°09'918.4
2017-Sep-15 14:31N 34°37' E 135°16'3 5.0
2017-Sep-15 13:50N 34°40' E 135°14'0 0.0
2017-Sep-15 13:26N 34°40' E 135°14'0 0.0
2017-Sep-15 12:56N 34°40' E 135°14'0 0.0
2017-Sep-15 12:26N 34°40' E 135°14'0 0.0
2017-Sep-15 11:56N 34°40' E 135°14'0 0.0
2017-Sep-15 11:26N 34°40' E 135°14'0 0.0
2017-Sep-15 10:56N 34°40' E 135°14'0 0.0
2017-Sep-15 10:20N 34°40' E 135°14'0 0.0
2017-Sep-15 09:56N 34°40' E 135°14'0 0.0
2017-Sep-15 09:14N 34°40' E 135°14'0 0.0
2017-Sep-15 08:56N 34°40' E 135°14'0 0.0
2017-Sep-15 08:26N 34°40' E 135°14'0 0.0
2017-Sep-15 07:56N 34°40' E 135°14'0 0.7
2017-Sep-15 07:31N 34°40' E 135°14'4 8.1
2017-Sep-15 07:00N 34°38' E 135°19'4 8.4
2017-Sep-15 06:31N 34°39' E 135°24'0 0.0
2017-Sep-15 05:44N 34°39' E 135°24'0 0.0
2017-Sep-15 05:26N 34°39' E 135°24'0 0.0
2017-Sep-15 04:56N 34°39' E 135°24'0 0.0
2017-Sep-15 04:26N 34°39' E 135°24'0 0.0
2017-Sep-15 03:56N 34°39' E 135°24'0 0.0
2017-Sep-15 03:26N 34°39' E 135°24'0 0.0
2017-Sep-15 02:50N 34°39' E 135°24'0 0.0
2017-Sep-15 02:26N 34°39' E 135°24'0 0.0
2017-Sep-15 01:56N 34°39' E 135°24'0 0.0
2017-Sep-15 01:26N 34°39' E 135°24'0 0.0
2017-Sep-15 00:56N 34°39' E 135°24'0 0.0
2017-Sep-15 00:26N 34°39' E 135°24'0 0.0
2017-Sep-14 23:56N 34°39' E 135°24'0 0.0
2017-Sep-14 23:26N 34°39' E 135°24'0 0.0
2017-Sep-14 22:56N 34°39' E 135°24'0 0.1
2017-Sep-14 22:24N 34°39' E 135°24'3 7.6
2017-Sep-14 22:00N 34°37' E 135°21'815.3
2017-Sep-14 21:31N 34°32' E 135°14'917.2
2017-Sep-14 21:00N 34°25' E 135°07'917.2
2017-Sep-14 20:30N 34°19' E 135°00'815.6
2017-Sep-14 20:00N 34°11' E 134°59'611.5
2017-Sep-14 19:31N 34°06' E 134°59'714.7
2017-Sep-14 19:00N 33°58' E 134°57'1014.1
2017-Sep-14 18:17N 33°48' E 134°54'  
2017-Sep-11 08:17N 22°23' E 113°54'1 4.1
2017-Sep-11 07:59N 22°24' E 113°53'4 7.2
2017-Sep-11 07:27N 22°28' E 113°52'0 0.1
2017-Sep-11 06:01N 22°28' E 113°52'0 0.0
2017-Sep-11 05:49N 22°28' E 113°52'0 0.0
2017-Sep-11 04:46N 22°28' E 113°52'0 0.0
2017-Sep-11 04:28N 22°28' E 113°52'0 0.0
2017-Sep-11 03:58N 22°28' E 113°52'0 0.0
2017-Sep-11 02:07N 22°28' E 113°52'0 0.0
2017-Sep-11 01:52N 22°28' E 113°52'0 0.0
2017-Sep-11 01:28N 22°28' E 113°52'0 0.0
2017-Sep-11 00:58N 22°28' E 113°52'0 0.0
2017-Sep-11 00:25N 22°28' E 113°52'0 0.0
2017-Sep-10 20:55N 22°28' E 113°52'0 0.0
2017-Sep-10 20:25N 22°28' E 113°52'0 0.0
2017-Sep-10 19:58N 22°28' E 113°52'0 0.0
2017-Sep-10 19:10N 22°28' E 113°52'0 0.0
2017-Sep-10 18:49N 22°28' E 113°52'0 0.2
2017-Sep-10 18:29N 22°28' E 113°52'3 5.9
2017-Sep-10 17:57N 22°25' E 113°53'14 0.9
2017-Sep-10 02:42N 22°19' E 114°07'  
Track history (hours):
 
Tides and Currents Weather Stations Pressure Air Temp Water Temp Dewpoint Dewpoint Depression Visibility Wind Speed Wind Dir Waves Ship Positions

MOL Commitment

Last reported at 2017-Sep-18 12:30 UTC. Time now 2017-Sep-21 17:35 UTC.
Position N 34°52' E 139°21'.

Length 316 m; draft 8 m.

Type: Ship (hazmat cat A). MMSI: 538005100.

Date/timePositionNaut miles runAvg speedWind from/ knotsBaromVisibWave heightAir tempDewpointWater temp
2017-Sep-18 12:30N 34°52' E 139°21'714.6
2017-Sep-18 12:00N 34°56' E 139°28'714.9
2017-Sep-18 11:30N 35°00' E 139°35'815.2
2017-Sep-18 11:00N 35°05' E 139°42'714.9
2017-Sep-18 10:30N 35°12' E 139°45'4 8.9
2017-Sep-18 10:00N 35°17' E 139°45'611.4
2017-Sep-18 09:31N 35°22' E 139°42'612.4
2017-Sep-18 09:01N 35°27' E 139°46'713.1
2017-Sep-18 08:31N 35°32' E 139°51'5 7.3
2017-Sep-18 07:49N 35°36' E 139°47'0 0.0
2017-Sep-18 07:28N 35°36' E 139°47'0 0.0
2017-Sep-18 06:58N 35°36' E 139°47'0 0.0
2017-Sep-18 06:28N 35°36' E 139°47'0 0.0
2017-Sep-18 05:58N 35°36' E 139°47'0 0.0
2017-Sep-18 05:28N 35°36' E 139°47'0 0.0
2017-Sep-18 04:49N 35°36' E 139°47'0 0.0
2017-Sep-18 04:25N 35°36' E 139°47'0 0.0
2017-Sep-18 03:58N 35°36' E 139°47'0 0.0
2017-Sep-18 03:22N 35°36' E 139°47'0 0.0
2017-Sep-18 02:55N 35°36' E 139°47'0 0.0
2017-Sep-18 02:25N 35°36' E 139°47'0 0.0
2017-Sep-18 01:52N 35°36' E 139°47'0 0.0
2017-Sep-18 01:22N 35°36' E 139°47'0 0.1
2017-Sep-18 00:58N 35°36' E 139°47'0 0.1
2017-Sep-18 00:25N 35°36' E 139°47'0 0.0
2017-Sep-17 23:49N 35°36' E 139°47'0 0.0
2017-Sep-17 23:16N 35°36' E 139°47'0 0.0
2017-Sep-17 22:43N 35°36' E 139°47'0 0.0
2017-Sep-17 22:28N 35°36' E 139°47'0 0.0
2017-Sep-17 21:58N 35°36' E 139°47'0 0.0
2017-Sep-17 21:22N 35°36' E 139°47'0 0.0
2017-Sep-17 20:55N 35°36' E 139°47'0 0.0
2017-Sep-17 20:28N 35°36' E 139°47'0 0.0
2017-Sep-17 19:52N 35°36' E 139°47'0 0.0
2017-Sep-17 19:28N 35°36' E 139°47'0 0.0
2017-Sep-17 18:55N 35°36' E 139°47'0 0.0
2017-Sep-17 18:22N 35°36' E 139°47'0 0.0
2017-Sep-17 17:58N 35°36' E 139°47'0 0.0
2017-Sep-17 17:28N 35°36' E 139°47'0 0.0
2017-Sep-17 16:58N 35°36' E 139°47'0 0.0
2017-Sep-17 16:25N 35°36' E 139°47'0 0.0
2017-Sep-17 16:01N 35°36' E 139°47'0 0.0
2017-Sep-17 15:28N 35°36' E 139°47'0 0.0
2017-Sep-17 14:46N 35°36' E 139°47'0 0.0
2017-Sep-17 14:22N 35°36' E 139°47'0 0.0
2017-Sep-17 13:58N 35°36' E 139°47'0 0.0
2017-Sep-17 13:19N 35°36' E 139°47'0 0.0
2017-Sep-17 12:55N 35°36' E 139°47'0 0.0
2017-Sep-17 12:28N 35°36' E 139°47'0 0.1
2017-Sep-17 12:01N 35°36' E 139°47'3 6.1
2017-Sep-17 11:30N 35°34' E 139°49'510.9
2017-Sep-17 11:00N 35°29' E 139°51'815.0
2017-Sep-17 10:30N 35°24' E 139°44'3 5.1
2017-Sep-17 10:01N 35°24' E 139°41'0 0.0
2017-Sep-17 09:30N 35°24' E 139°41'0 0.0
2017-Sep-17 09:00N 35°24' E 139°41'0 0.0
2017-Sep-17 08:30N 35°24' E 139°41'0 0.0
2017-Sep-17 08:00N 35°24' E 139°41'0 0.0
2017-Sep-17 07:30N 35°24' E 139°41'0 0.0
2017-Sep-17 07:00N 35°24' E 139°41'0 0.0
2017-Sep-17 06:30N 35°24' E 139°41'0 0.0
2017-Sep-17 06:00N 35°24' E 139°41'0 0.0
2017-Sep-17 05:30N 35°24' E 139°41'0 0.4
2017-Sep-17 05:00N 35°24' E 139°41'2 4.1
2017-Sep-17 04:30N 35°22' E 139°42'5 9.5
2017-Sep-17 04:00N 35°18' E 139°45'611.9
2017-Sep-17 03:30N 35°12' E 139°47'510.8
2017-Sep-17 03:00N 35°07' E 139°44'815.5
2017-Sep-17 02:30N 35°02' E 139°38'918.3
2017-Sep-17 02:00N 34°57' E 139°29'918.1
2017-Sep-17 01:30N 34°51' E 139°20'220 6.7
2017-Sep-15 16:35N 34°04' E 134°58'218.4
2017-Sep-15 16:28N 34°06' E 134°58'816.7
2017-Sep-15 16:00N 34°14' E 134°58'917.7
2017-Sep-15 15:29N 34°23' E 135°01'919.4
2017-Sep-15 15:01N 34°29' E 135°09'918.4
2017-Sep-15 14:31N 34°37' E 135°16'3 5.0
2017-Sep-15 13:50N 34°40' E 135°14'0 0.0
2017-Sep-15 13:26N 34°40' E 135°14'0 0.0
2017-Sep-15 12:56N 34°40' E 135°14'0 0.0
2017-Sep-15 12:26N 34°40' E 135°14'0 0.0
2017-Sep-15 11:56N 34°40' E 135°14'0 0.0
2017-Sep-15 11:26N 34°40' E 135°14'0 0.0
2017-Sep-15 10:56N 34°40' E 135°14'0 0.0
2017-Sep-15 10:20N 34°40' E 135°14'0 0.0
2017-Sep-15 09:56N 34°40' E 135°14'0 0.0
2017-Sep-15 09:14N 34°40' E 135°14'0 0.0
2017-Sep-15 08:56N 34°40' E 135°14'0 0.0
2017-Sep-15 08:26N 34°40' E 135°14'0 0.0
2017-Sep-15 07:56N 34°40' E 135°14'0 0.7
2017-Sep-15 07:31N 34°40' E 135°14'4 8.1
2017-Sep-15 07:00N 34°38' E 135°19'4 8.4
2017-Sep-15 06:31N 34°39' E 135°24'0 0.0
2017-Sep-15 05:44N 34°39' E 135°24'0 0.0
2017-Sep-15 05:26N 34°39' E 135°24'0 0.0
2017-Sep-15 04:56N 34°39' E 135°24'0 0.0
2017-Sep-15 04:26N 34°39' E 135°24'0 0.0
2017-Sep-15 03:56N 34°39' E 135°24'0 0.0
2017-Sep-15 03:26N 34°39' E 135°24'0 0.0
2017-Sep-15 02:50N 34°39' E 135°24'0 0.0
2017-Sep-15 02:26N 34°39' E 135°24'0 0.0
2017-Sep-15 01:56N 34°39' E 135°24'0 0.0
2017-Sep-15 01:26N 34°39' E 135°24'0 0.0
2017-Sep-15 00:56N 34°39' E 135°24'0 0.0
2017-Sep-15 00:26N 34°39' E 135°24'0 0.0
2017-Sep-14 23:56N 34°39' E 135°24'0 0.0
2017-Sep-14 23:26N 34°39' E 135°24'0 0.0
2017-Sep-14 22:56N 34°39' E 135°24'0 0.1
2017-Sep-14 22:24N 34°39' E 135°24'3 7.6
2017-Sep-14 22:00N 34°37' E 135°21'815.3
2017-Sep-14 21:31N 34°32' E 135°14'917.2
2017-Sep-14 21:00N 34°25' E 135°07'917.2
2017-Sep-14 20:30N 34°19' E 135°00'815.6
2017-Sep-14 20:00N 34°11' E 134°59'611.5
2017-Sep-14 19:31N 34°06' E 134°59'714.7
2017-Sep-14 19:00N 33°58' E 134°57'1014.1
2017-Sep-14 18:17N 33°48' E 134°54'  
2017-Sep-11 08:17N 22°23' E 113°54'1 4.1
2017-Sep-11 07:59N 22°24' E 113°53'4 7.2
2017-Sep-11 07:27N 22°28' E 113°52'0 0.1
2017-Sep-11 06:01N 22°28' E 113°52'0 0.0
2017-Sep-11 05:49N 22°28' E 113°52'0 0.0
2017-Sep-11 04:46N 22°28' E 113°52'0 0.0
2017-Sep-11 04:28N 22°28' E 113°52'0 0.0
2017-Sep-11 03:58N 22°28' E 113°52'0 0.0
2017-Sep-11 02:07N 22°28' E 113°52'0 0.0
2017-Sep-11 01:52N 22°28' E 113°52'0 0.0
2017-Sep-11 01:28N 22°28' E 113°52'0 0.0
2017-Sep-11 00:58N 22°28' E 113°52'0 0.0
2017-Sep-11 00:25N 22°28' E 113°52'0 0.0
2017-Sep-10 20:55N 22°28' E 113°52'0 0.0
2017-Sep-10 20:25N 22°28' E 113°52'0 0.0
2017-Sep-10 19:58N 22°28' E 113°52'0 0.0
2017-Sep-10 19:10N 22°28' E 113°52'0 0.0
2017-Sep-10 18:49N 22°28' E 113°52'0 0.2
2017-Sep-10 18:29N 22°28' E 113°52'3 5.9
2017-Sep-10 17:57N 22°25' E 113°53'14 0.9
2017-Sep-10 02:42N 22°19' E 114°07'  

Dump ship's entire track history